sensor_id;sensor_type;location;lat;lon;timestamp;temperature;humidity
27667;DHT22;15074;50.940;5.282;2023-06-22T00:02:16;21.80;99.90
27667;DHT22;15074;50.940;5.282;2023-06-22T00:04:43;21.80;99.90
27667;DHT22;15074;50.940;5.282;2023-06-22T00:07:08;21.60;99.90
27667;DHT22;15074;50.940;5.282;2023-06-22T00:09:34;21.60;99.90
27667;DHT22;15074;50.940;5.282;2023-06-22T00:12:01;21.50;99.90
27667;DHT22;15074;50.940;5.282;2023-06-22T00:14:27;21.50;99.90
27667;DHT22;15074;50.940;5.282;2023-06-22T00:16:53;21.60;99.90
27667;DHT22;15074;50.940;5.282;2023-06-22T00:19:23;21.60;99.90
27667;DHT22;15074;50.940;5.282;2023-06-22T00:21:50;21.70;99.90
27667;DHT22;15074;50.940;5.282;2023-06-22T00:24:19;21.80;99.90
27667;DHT22;15074;50.940;5.282;2023-06-22T00:26:45;21.60;99.90
27667;DHT22;15074;50.940;5.282;2023-06-22T00:29:10;21.60;99.90
27667;DHT22;15074;50.940;5.282;2023-06-22T00:31:36;21.60;99.90
27667;DHT22;15074;50.940;5.282;2023-06-22T00:34:02;21.70;99.90
27667;DHT22;15074;50.940;5.282;2023-06-22T00:36:28;21.80;99.90
27667;DHT22;15074;50.940;5.282;2023-06-22T00:38:54;21.80;99.90
27667;DHT22;15074;50.940;5.282;2023-06-22T00:41:20;21.90;99.90
27667;DHT22;15074;50.940;5.282;2023-06-22T00:43:45;21.90;99.90
27667;DHT22;15074;50.940;5.282;2023-06-22T00:46:11;21.90;99.90
27667;DHT22;15074;50.940;5.282;2023-06-22T00:48:38;21.80;99.90
27667;DHT22;15074;50.940;5.282;2023-06-22T00:51:05;21.80;99.90
27667;DHT22;15074;50.940;5.282;2023-06-22T00:53:31;21.80;99.90
27667;DHT22;15074;50.940;5.282;2023-06-22T00:56:00;21.70;99.90
27667;DHT22;15074;50.940;5.282;2023-06-22T00:58:26;21.70;99.90
27667;DHT22;15074;50.940;5.282;2023-06-22T01:00:52;21.80;99.90
27667;DHT22;15074;50.940;5.282;2023-06-22T01:03:17;21.80;99.90
27667;DHT22;15074;50.940;5.282;2023-06-22T01:05:44;21.80;99.90
27667;DHT22;15074;50.940;5.282;2023-06-22T01:08:42;21.70;99.90
27667;DHT22;15074;50.940;5.282;2023-06-22T01:11:16;21.80;99.90
27667;DHT22;15074;50.940;5.282;2023-06-22T01:13:48;21.60;99.90
27667;DHT22;15074;50.940;5.282;2023-06-22T01:16:27;21.40;99.90
27667;DHT22;15074;50.940;5.282;2023-06-22T01:18:55;21.40;99.90
27667;DHT22;15074;50.940;5.282;2023-06-22T01:21:24;21.40;99.90
27667;DHT22;15074;50.940;5.282;2023-06-22T01:24:02;21.50;99.90
27667;DHT22;15074;50.940;5.282;2023-06-22T01:26:42;21.40;99.90
27667;DHT22;15074;50.940;5.282;2023-06-22T01:29:11;21.40;99.90
27667;DHT22;15074;50.940;5.282;2023-06-22T01:31:39;21.40;99.90
27667;DHT22;15074;50.940;5.282;2023-06-22T01:34:07;21.50;99.90
27667;DHT22;15074;50.940;5.282;2023-06-22T01:36:34;21.30;99.90
27667;DHT22;15074;50.940;5.282;2023-06-22T01:39:02;21.30;99.90
27667;DHT22;15074;50.940;5.282;2023-06-22T01:41:30;21.40;99.90
27667;DHT22;15074;50.940;5.282;2023-06-22T01:43:56;21.40;99.90
27667;DHT22;15074;50.940;5.282;2023-06-22T01:46:23;21.40;99.90
27667;DHT22;15074;50.940;5.282;2023-06-22T01:48:49;21.40;99.90
27667;DHT22;15074;50.940;5.282;2023-06-22T01:51:16;21.30;99.90
27667;DHT22;15074;50.940;5.282;2023-06-22T01:53:41;21.40;99.90
27667;DHT22;15074;50.940;5.282;2023-06-22T01:56:08;21.40;99.90
27667;DHT22;15074;50.940;5.282;2023-06-22T01:58:37;21.50;99.90
27667;DHT22;15074;50.940;5.282;2023-06-22T02:03:35;21.50;99.90
27667;DHT22;15074;50.940;5.282;2023-06-22T02:06:08;21.50;99.90
27667;DHT22;15074;50.940;5.282;2023-06-22T02:08:41;21.50;99.90
27667;DHT22;15074;50.940;5.282;2023-06-22T02:11:13;21.50;99.90
27667;DHT22;15074;50.940;5.282;2023-06-22T02:13:40;21.50;99.90
27667;DHT22;15074;50.940;5.282;2023-06-22T02:16:11;21.50;99.90
27667;DHT22;15074;50.940;5.282;2023-06-22T02:18:37;21.40;99.90
27667;DHT22;15074;50.940;5.282;2023-06-22T02:21:03;21.40;99.90
27667;DHT22;15074;50.940;5.282;2023-06-22T02:23:29;21.40;99.90
27667;DHT22;15074;50.940;5.282;2023-06-22T02:25:54;21.30;99.90
27667;DHT22;15074;50.940;5.282;2023-06-22T02:28:20;21.30;99.90
27667;DHT22;15074;50.940;5.282;2023-06-22T02:30:46;21.20;99.90
27667;DHT22;15074;50.940;5.282;2023-06-22T02:33:11;21.10;99.90
27667;DHT22;15074;50.940;5.282;2023-06-22T02:35:37;20.90;99.90
27667;DHT22;15074;50.940;5.282;2023-06-22T02:38:03;20.90;99.90
27667;DHT22;15074;50.940;5.282;2023-06-22T02:40:30;20.80;99.90
27667;DHT22;15074;50.940;5.282;2023-06-22T02:42:56;20.70;99.90
27667;DHT22;15074;50.940;5.282;2023-06-22T02:45:23;20.70;99.90
27667;DHT22;15074;50.940;5.282;2023-06-22T02:47:49;20.70;99.90
27667;DHT22;15074;50.940;5.282;2023-06-22T02:50:15;20.70;99.90
27667;DHT22;15074;50.940;5.282;2023-06-22T02:52:42;20.80;99.90
27667;DHT22;15074;50.940;5.282;2023-06-22T02:55:08;20.90;99.90
27667;DHT22;15074;50.940;5.282;2023-06-22T02:57:34;20.80;99.90
27667;DHT22;15074;50.940;5.282;2023-06-22T03:00:02;20.70;99.90
27667;DHT22;15074;50.940;5.282;2023-06-22T03:02:28;20.50;99.90
27667;DHT22;15074;50.940;5.282;2023-06-22T03:04:54;20.50;99.90
27667;DHT22;15074;50.940;5.282;2023-06-22T03:07:20;20.40;99.90
27667;DHT22;15074;50.940;5.282;2023-06-22T03:09:46;20.30;99.90
27667;DHT22;15074;50.940;5.282;2023-06-22T03:12:11;20.30;99.90
27667;DHT22;15074;50.940;5.282;2023-06-22T03:14:37;20.20;99.90
27667;DHT22;15074;50.940;5.282;2023-06-22T03:17:04;20.20;99.90
27667;DHT22;15074;50.940;5.282;2023-06-22T03:19:30;20.20;99.90
27667;DHT22;15074;50.940;5.282;2023-06-22T03:22:00;20.30;99.90
27667;DHT22;15074;50.940;5.282;2023-06-22T03:24:26;20.40;99.90
27667;DHT22;15074;50.940;5.282;2023-06-22T03:26:54;20.40;99.90
27667;DHT22;15074;50.940;5.282;2023-06-22T03:29:20;20.40;99.90
27667;DHT22;15074;50.940;5.282;2023-06-22T03:31:45;20.40;99.90
27667;DHT22;15074;50.940;5.282;2023-06-22T03:34:11;20.30;99.90
27667;DHT22;15074;50.940;5.282;2023-06-22T03:36:37;20.30;99.90
27667;DHT22;15074;50.940;5.282;2023-06-22T03:39:02;20.30;99.90
27667;DHT22;15074;50.940;5.282;2023-06-22T03:41:28;20.30;99.90
27667;DHT22;15074;50.940;5.282;2023-06-22T03:43:54;20.40;99.90
27667;DHT22;15074;50.940;5.282;2023-06-22T03:46:19;20.50;99.90
27667;DHT22;15074;50.940;5.282;2023-06-22T03:48:45;20.50;99.90
27667;DHT22;15074;50.940;5.282;2023-06-22T03:51:11;20.60;99.90
27667;DHT22;15074;50.940;5.282;2023-06-22T03:53:37;20.70;99.90
27667;DHT22;15074;50.940;5.282;2023-06-22T03:56:02;20.70;99.90
27667;DHT22;15074;50.940;5.282;2023-06-22T03:58:28;20.80;99.90
27667;DHT22;15074;50.940;5.282;2023-06-22T04:00:58;20.80;99.90
27667;DHT22;15074;50.940;5.282;2023-06-22T04:03:25;20.80;99.90
27667;DHT22;15074;50.940;5.282;2023-06-22T04:05:50;20.80;99.90
27667;DHT22;15074;50.940;5.282;2023-06-22T04:08:16;20.80;99.90
27667;DHT22;15074;50.940;5.282;2023-06-22T04:10:42;20.40;99.90
27667;DHT22;15074;50.940;5.282;2023-06-22T04:13:08;20.30;99.90
27667;DHT22;15074;50.940;5.282;2023-06-22T04:15:34;20.00;99.90
27667;DHT22;15074;50.940;5.282;2023-06-22T04:17:59;19.90;99.90
27667;DHT22;15074;50.940;5.282;2023-06-22T04:20:25;19.90;99.90
27667;DHT22;15074;50.940;5.282;2023-06-22T04:22:53;20.00;99.90
27667;DHT22;15074;50.940;5.282;2023-06-22T04:25:20;20.20;99.90
27667;DHT22;15074;50.940;5.282;2023-06-22T04:27:46;20.50;99.90
27667;DHT22;15074;50.940;5.282;2023-06-22T04:30:12;20.30;99.90
27667;DHT22;15074;50.940;5.282;2023-06-22T04:32:40;20.20;99.90
27667;DHT22;15074;50.940;5.282;2023-06-22T04:35:06;20.20;99.90
27667;DHT22;15074;50.940;5.282;2023-06-22T04:37:33;20.10;99.90
27667;DHT22;15074;50.940;5.282;2023-06-22T04:39:58;20.30;99.90
27667;DHT22;15074;50.940;5.282;2023-06-22T04:42:27;20.30;99.90
27667;DHT22;15074;50.940;5.282;2023-06-22T04:44:53;20.40;99.90
27667;DHT22;15074;50.940;5.282;2023-06-22T04:47:19;20.50;99.90
27667;DHT22;15074;50.940;5.282;2023-06-22T04:49:45;20.70;99.90
27667;DHT22;15074;50.940;5.282;2023-06-22T04:52:12;20.90;99.90
27667;DHT22;15074;50.940;5.282;2023-06-22T04:54:39;21.10;99.90
27667;DHT22;15074;50.940;5.282;2023-06-22T04:57:07;21.20;99.90
27667;DHT22;15074;50.940;5.282;2023-06-22T04:59:37;21.40;99.90
27667;DHT22;15074;50.940;5.282;2023-06-22T05:02:04;21.50;99.90
27667;DHT22;15074;50.940;5.282;2023-06-22T05:04:31;21.50;99.90
27667;DHT22;15074;50.940;5.282;2023-06-22T05:06:57;21.60;99.90
27667;DHT22;15074;50.940;5.282;2023-06-22T05:09:23;21.60;99.90
27667;DHT22;15074;50.940;5.282;2023-06-22T05:11:50;21.50;99.90
27667;DHT22;15074;50.940;5.282;2023-06-22T05:14:17;21.50;99.90
27667;DHT22;15074;50.940;5.282;2023-06-22T05:16:44;21.50;99.90
27667;DHT22;15074;50.940;5.282;2023-06-22T05:19:10;21.50;99.90
27667;DHT22;15074;50.940;5.282;2023-06-22T05:21:36;21.40;99.90
27667;DHT22;15074;50.940;5.282;2023-06-22T05:24:02;21.30;99.90
27667;DHT22;15074;50.940;5.282;2023-06-22T05:26:29;21.30;99.90
27667;DHT22;15074;50.940;5.282;2023-06-22T05:28:55;21.20;99.90
27667;DHT22;15074;50.940;5.282;2023-06-22T05:31:21;21.10;99.90
27667;DHT22;15074;50.940;5.282;2023-06-22T05:33:49;21.10;99.90
27667;DHT22;15074;50.940;5.282;2023-06-22T05:36:15;21.10;99.90
27667;DHT22;15074;50.940;5.282;2023-06-22T05:38:41;21.10;99.90
27667;DHT22;15074;50.940;5.282;2023-06-22T05:41:07;21.10;99.90
27667;DHT22;15074;50.940;5.282;2023-06-22T05:43:33;21.00;99.90
27667;DHT22;15074;50.940;5.282;2023-06-22T05:46:01;20.90;99.90
27667;DHT22;15074;50.940;5.282;2023-06-22T05:48:27;20.80;99.90
27667;DHT22;15074;50.940;5.282;2023-06-22T05:50:53;20.60;99.90
27667;DHT22;15074;50.940;5.282;2023-06-22T05:53:18;20.40;99.90
27667;DHT22;15074;50.940;5.282;2023-06-22T05:55:44;20.60;99.90
27667;DHT22;15074;50.940;5.282;2023-06-22T05:58:10;20.70;99.90
27667;DHT22;15074;50.940;5.282;2023-06-22T06:00:36;20.60;99.90
27667;DHT22;15074;50.940;5.282;2023-06-22T06:03:02;20.60;99.90
27667;DHT22;15074;50.940;5.282;2023-06-22T06:05:31;20.60;99.90
27667;DHT22;15074;50.940;5.282;2023-06-22T06:07:57;20.60;99.90
27667;DHT22;15074;50.940;5.282;2023-06-22T06:10:23;20.80;99.90
27667;DHT22;15074;50.940;5.282;2023-06-22T06:12:55;21.00;99.90
27667;DHT22;15074;50.940;5.282;2023-06-22T06:15:21;20.90;99.90
27667;DHT22;15074;50.940;5.282;2023-06-22T06:20:14;21.10;99.90
27667;DHT22;15074;50.940;5.282;2023-06-22T06:22:39;20.90;99.90
27667;DHT22;15074;50.940;5.282;2023-06-22T06:25:05;21.00;99.90
27667;DHT22;15074;50.940;5.282;2023-06-22T06:27:31;21.00;99.90
27667;DHT22;15074;50.940;5.282;2023-06-22T06:29:57;21.00;99.90
27667;DHT22;15074;50.940;5.282;2023-06-22T06:32:22;21.10;99.90
27667;DHT22;15074;50.940;5.282;2023-06-22T06:34:48;21.10;99.90
27667;DHT22;15074;50.940;5.282;2023-06-22T06:37:14;21.30;99.90
27667;DHT22;15074;50.940;5.282;2023-06-22T06:39:39;21.40;99.90
27667;DHT22;15074;50.940;5.282;2023-06-22T06:42:05;21.40;99.90
27667;DHT22;15074;50.940;5.282;2023-06-22T06:44:31;21.50;99.90
27667;DHT22;15074;50.940;5.282;2023-06-22T06:46:57;21.60;99.90
27667;DHT22;15074;50.940;5.282;2023-06-22T06:49:23;21.80;99.90
27667;DHT22;15074;50.940;5.282;2023-06-22T06:51:48;21.90;99.90
27667;DHT22;15074;50.940;5.282;2023-06-22T06:54:14;22.00;99.90
27667;DHT22;15074;50.940;5.282;2023-06-22T06:56:40;22.30;99.90
27667;DHT22;15074;50.940;5.282;2023-06-22T06:59:05;22.60;99.90
27667;DHT22;15074;50.940;5.282;2023-06-22T07:01:31;22.80;99.90
27667;DHT22;15074;50.940;5.282;2023-06-22T07:03:59;23.10;99.90
27667;DHT22;15074;50.940;5.282;2023-06-22T07:06:26;23.10;99.90
27667;DHT22;15074;50.940;5.282;2023-06-22T07:08:55;23.30;99.90
27667;DHT22;15074;50.940;5.282;2023-06-22T07:11:21;23.30;99.90
27667;DHT22;15074;50.940;5.282;2023-06-22T07:13:46;23.00;99.90
27667;DHT22;15074;50.940;5.282;2023-06-22T07:16:12;23.20;99.90
27667;DHT22;15074;50.940;5.282;2023-06-22T07:18:39;23.40;99.90
27667;DHT22;15074;50.940;5.282;2023-06-22T07:21:05;23.50;99.90
27667;DHT22;15074;50.940;5.282;2023-06-22T07:23:32;23.50;99.90
27667;DHT22;15074;50.940;5.282;2023-06-22T07:25:58;23.90;99.90
27667;DHT22;15074;50.940;5.282;2023-06-22T07:28:27;24.10;99.90
27667;DHT22;15074;50.940;5.282;2023-06-22T07:30:53;24.20;99.90
27667;DHT22;15074;50.940;5.282;2023-06-22T07:33:18;24.10;99.90
27667;DHT22;15074;50.940;5.282;2023-06-22T07:35:45;23.90;99.90
27667;DHT22;15074;50.940;5.282;2023-06-22T07:38:12;23.60;99.90
27667;DHT22;15074;50.940;5.282;2023-06-22T07:40:37;23.40;99.90
27667;DHT22;15074;50.940;5.282;2023-06-22T07:43:03;23.20;99.90
27667;DHT22;15074;50.940;5.282;2023-06-22T07:45:29;23.10;99.90
27667;DHT22;15074;50.940;5.282;2023-06-22T07:47:55;23.00;99.90
27667;DHT22;15074;50.940;5.282;2023-06-22T07:50:21;22.90;99.90
27667;DHT22;15074;50.940;5.282;2023-06-22T07:52:46;22.90;99.90
27667;DHT22;15074;50.940;5.282;2023-06-22T07:55:13;23.10;99.90
27667;DHT22;15074;50.940;5.282;2023-06-22T07:57:39;23.30;99.90
27667;DHT22;15074;50.940;5.282;2023-06-22T08:00:07;23.20;99.90
27667;DHT22;15074;50.940;5.282;2023-06-22T08:02:40;23.50;99.90
27667;DHT22;15074;50.940;5.282;2023-06-22T08:05:07;23.90;99.90
27667;DHT22;15074;50.940;5.282;2023-06-22T08:07:34;23.90;99.90
27667;DHT22;15074;50.940;5.282;2023-06-22T08:10:02;24.10;99.90
27667;DHT22;15074;50.940;5.282;2023-06-22T08:12:28;24.00;99.90
27667;DHT22;15074;50.940;5.282;2023-06-22T08:14:54;24.20;99.90
27667;DHT22;15074;50.940;5.282;2023-06-22T08:17:19;24.50;99.90
27667;DHT22;15074;50.940;5.282;2023-06-22T08:19:45;24.90;99.90
27667;DHT22;15074;50.940;5.282;2023-06-22T08:22:11;25.30;99.90
27667;DHT22;15074;50.940;5.282;2023-06-22T08:24:36;25.80;99.90
27667;DHT22;15074;50.940;5.282;2023-06-22T08:27:02;25.90;99.90
27667;DHT22;15074;50.940;5.282;2023-06-22T08:29:28;25.60;99.90
27667;DHT22;15074;50.940;5.282;2023-06-22T08:31:53;25.60;99.90
27667;DHT22;15074;50.940;5.282;2023-06-22T08:34:19;25.70;99.90
27667;DHT22;15074;50.940;5.282;2023-06-22T08:36:50;25.70;99.90
27667;DHT22;15074;50.940;5.282;2023-06-22T08:39:18;26.00;99.90
27667;DHT22;15074;50.940;5.282;2023-06-22T08:41:45;26.50;99.90
27667;DHT22;15074;50.940;5.282;2023-06-22T08:44:11;26.20;99.90
27667;DHT22;15074;50.940;5.282;2023-06-22T08:46:37;25.80;99.90
27667;DHT22;15074;50.940;5.282;2023-06-22T08:49:04;25.50;99.90
27667;DHT22;15074;50.940;5.282;2023-06-22T08:51:29;25.70;99.90
27667;DHT22;15074;50.940;5.282;2023-06-22T08:53:55;25.90;99.90
27667;DHT22;15074;50.940;5.282;2023-06-22T08:56:21;26.10;99.90
27667;DHT22;15074;50.940;5.282;2023-06-22T08:58:46;25.90;99.90
27667;DHT22;15074;50.940;5.282;2023-06-22T09:01:12;25.30;99.90
27667;DHT22;15074;50.940;5.282;2023-06-22T09:03:38;25.40;99.90
27667;DHT22;15074;50.940;5.282;2023-06-22T09:06:04;24.90;99.90
27667;DHT22;15074;50.940;5.282;2023-06-22T09:08:29;24.70;99.90
27667;DHT22;15074;50.940;5.282;2023-06-22T09:10:55;24.90;99.90
27667;DHT22;15074;50.940;5.282;2023-06-22T09:13:21;24.90;99.90
27667;DHT22;15074;50.940;5.282;2023-06-22T09:15:47;24.90;99.90
27667;DHT22;15074;50.940;5.282;2023-06-22T09:18:13;24.90;99.90
27667;DHT22;15074;50.940;5.282;2023-06-22T09:20:39;25.00;99.90
27667;DHT22;15074;50.940;5.282;2023-06-22T09:23:05;25.10;99.90
27667;DHT22;15074;50.940;5.282;2023-06-22T09:25:31;25.00;99.90
27667;DHT22;15074;50.940;5.282;2023-06-22T09:27:56;25.00;99.90
27667;DHT22;15074;50.940;5.282;2023-06-22T09:30:22;24.80;99.90
27667;DHT22;15074;50.940;5.282;2023-06-22T09:32:48;24.60;99.90
27667;DHT22;15074;50.940;5.282;2023-06-22T09:35:14;24.70;99.90
27667;DHT22;15074;50.940;5.282;2023-06-22T09:37:40;24.70;99.90
27667;DHT22;15074;50.940;5.282;2023-06-22T09:40:07;24.80;99.90
27667;DHT22;15074;50.940;5.282;2023-06-22T09:42:38;24.80;99.90
27667;DHT22;15074;50.940;5.282;2023-06-22T09:45:04;24.90;99.90
27667;DHT22;15074;50.940;5.282;2023-06-22T09:47:30;25.00;99.90
27667;DHT22;15074;50.940;5.282;2023-06-22T09:49:56;25.10;99.90
27667;DHT22;15074;50.940;5.282;2023-06-22T09:52:24;25.20;99.90
27667;DHT22;15074;50.940;5.282;2023-06-22T09:54:50;25.10;99.90
27667;DHT22;15074;50.940;5.282;2023-06-22T09:57:15;25.30;99.90
27667;DHT22;15074;50.940;5.282;2023-06-22T09:59:41;25.20;99.90
27667;DHT22;15074;50.940;5.282;2023-06-22T10:02:07;25.30;99.90
27667;DHT22;15074;50.940;5.282;2023-06-22T10:04:34;25.30;99.90
27667;DHT22;15074;50.940;5.282;2023-06-22T10:07:00;25.20;99.90
27667;DHT22;15074;50.940;5.282;2023-06-22T10:09:26;24.90;99.90
27667;DHT22;15074;50.940;5.282;2023-06-22T10:11:52;24.60;99.90
27667;DHT22;15074;50.940;5.282;2023-06-22T10:14:18;24.60;99.90
27667;DHT22;15074;50.940;5.282;2023-06-22T10:16:45;24.50;99.90
27667;DHT22;15074;50.940;5.282;2023-06-22T10:19:10;24.30;99.90
27667;DHT22;15074;50.940;5.282;2023-06-22T10:21:36;24.20;99.90
27667;DHT22;15074;50.940;5.282;2023-06-22T10:24:02;24.00;99.90
27667;DHT22;15074;50.940;5.282;2023-06-22T10:26:34;23.70;99.90
27667;DHT22;15074;50.940;5.282;2023-06-22T10:29:03;23.50;99.90
27667;DHT22;15074;50.940;5.282;2023-06-22T10:31:29;23.20;99.90
27667;DHT22;15074;50.940;5.282;2023-06-22T10:33:55;23.00;99.90
27667;DHT22;15074;50.940;5.282;2023-06-22T10:36:22;22.90;99.90
27667;DHT22;15074;50.940;5.282;2023-06-22T10:38:48;22.70;99.90
27667;DHT22;15074;50.940;5.282;2023-06-22T10:41:14;22.50;99.90
27667;DHT22;15074;50.940;5.282;2023-06-22T10:43:40;22.20;99.90
27667;DHT22;15074;50.940;5.282;2023-06-22T10:46:06;22.00;99.90
27667;DHT22;15074;50.940;5.282;2023-06-22T10:48:32;21.90;99.90
27667;DHT22;15074;50.940;5.282;2023-06-22T10:50:58;21.80;99.90
27667;DHT22;15074;50.940;5.282;2023-06-22T10:53:24;21.70;99.90
27667;DHT22;15074;50.940;5.282;2023-06-22T10:55:50;21.60;99.90
27667;DHT22;15074;50.940;5.282;2023-06-22T10:58:20;21.70;99.90
27667;DHT22;15074;50.940;5.282;2023-06-22T11:00:47;21.80;99.90
27667;DHT22;15074;50.940;5.282;2023-06-22T11:03:13;21.90;99.90
27667;DHT22;15074;50.940;5.282;2023-06-22T11:05:39;22.00;99.90
27667;DHT22;15074;50.940;5.282;2023-06-22T11:08:05;22.20;99.90
27667;DHT22;15074;50.940;5.282;2023-06-22T11:10:31;21.90;99.90
27667;DHT22;15074;50.940;5.282;2023-06-22T11:12:56;21.90;99.90
27667;DHT22;15074;50.940;5.282;2023-06-22T11:15:24;21.90;99.90
27667;DHT22;15074;50.940;5.282;2023-06-22T11:17:49;21.80;99.90
27667;DHT22;15074;50.940;5.282;2023-06-22T11:20:15;21.70;99.90
27667;DHT22;15074;50.940;5.282;2023-06-22T11:22:41;21.60;99.90
27667;DHT22;15074;50.940;5.282;2023-06-22T11:25:07;21.70;99.90
27667;DHT22;15074;50.940;5.282;2023-06-22T11:27:34;21.70;99.90
27667;DHT22;15074;50.940;5.282;2023-06-22T11:29:59;22.00;99.90
27667;DHT22;15074;50.940;5.282;2023-06-22T11:32:25;22.40;99.90
27667;DHT22;15074;50.940;5.282;2023-06-22T11:34:51;22.60;99.90
27667;DHT22;15074;50.940;5.282;2023-06-22T11:37:16;22.90;99.90
27667;DHT22;15074;50.940;5.282;2023-06-22T11:39:42;23.30;99.90
27667;DHT22;15074;50.940;5.282;2023-06-22T11:42:09;23.60;99.90
27667;DHT22;15074;50.940;5.282;2023-06-22T11:44:35;23.50;99.90
27667;DHT22;15074;50.940;5.282;2023-06-22T11:47:00;23.10;99.90
27667;DHT22;15074;50.940;5.282;2023-06-22T11:49:29;22.90;99.90
27667;DHT22;15074;50.940;5.282;2023-06-22T11:51:55;22.70;99.90
27667;DHT22;15074;50.940;5.282;2023-06-22T11:54:21;22.70;99.90
27667;DHT22;15074;50.940;5.282;2023-06-22T11:56:46;22.50;99.90
27667;DHT22;15074;50.940;5.282;2023-06-22T11:59:12;22.30;99.90
27667;DHT22;15074;50.940;5.282;2023-06-22T12:01:38;22.20;99.90
27667;DHT22;15074;50.940;5.282;2023-06-22T12:04:04;22.00;99.90
27667;DHT22;15074;50.940;5.282;2023-06-22T12:06:32;21.90;99.90
27667;DHT22;15074;50.940;5.282;2023-06-22T12:08:58;21.80;99.90
27667;DHT22;15074;50.940;5.282;2023-06-22T12:11:24;21.50;99.90
27667;DHT22;15074;50.940;5.282;2023-06-22T12:13:49;21.20;99.90
27667;DHT22;15074;50.940;5.282;2023-06-22T12:16:15;21.10;99.90
27667;DHT22;15074;50.940;5.282;2023-06-22T12:18:40;21.10;99.90
27667;DHT22;15074;50.940;5.282;2023-06-22T12:21:07;21.00;99.90
27667;DHT22;15074;50.940;5.282;2023-06-22T12:23:32;21.00;99.90
27667;DHT22;15074;50.940;5.282;2023-06-22T12:25:58;20.80;99.90
27667;DHT22;15074;50.940;5.282;2023-06-22T12:28:25;20.70;99.90
27667;DHT22;15074;50.940;5.282;2023-06-22T12:30:51;20.60;99.90
27667;DHT22;15074;50.940;5.282;2023-06-22T12:33:16;20.60;99.90
27667;DHT22;15074;50.940;5.282;2023-06-22T12:35:43;20.50;99.90
27667;DHT22;15074;50.940;5.282;2023-06-22T12:38:08;20.50;99.90
27667;DHT22;15074;50.940;5.282;2023-06-22T12:40:34;20.50;99.90
27667;DHT22;15074;50.940;5.282;2023-06-22T12:43:00;20.50;99.90
27667;DHT22;15074;50.940;5.282;2023-06-22T12:45:27;20.50;99.90
27667;DHT22;15074;50.940;5.282;2023-06-22T12:47:57;20.40;99.90
27667;DHT22;15074;50.940;5.282;2023-06-22T12:50:22;20.30;99.90
27667;DHT22;15074;50.940;5.282;2023-06-22T12:52:48;20.10;99.90
27667;DHT22;15074;50.940;5.282;2023-06-22T12:55:13;20.20;99.90
27667;DHT22;15074;50.940;5.282;2023-06-22T12:57:39;20.20;99.90
27667;DHT22;15074;50.940;5.282;2023-06-22T13:00:06;19.90;99.90
27667;DHT22;15074;50.940;5.282;2023-06-22T13:02:33;20.00;99.90
27667;DHT22;15074;50.940;5.282;2023-06-22T13:04:59;19.90;99.90
27667;DHT22;15074;50.940;5.282;2023-06-22T13:07:26;19.80;99.90
27667;DHT22;15074;50.940;5.282;2023-06-22T13:09:51;19.70;99.90
27667;DHT22;15074;50.940;5.282;2023-06-22T13:12:17;19.70;99.90
27667;DHT22;15074;50.940;5.282;2023-06-22T13:14:45;19.60;99.90
27667;DHT22;15074;50.940;5.282;2023-06-22T13:17:12;19.60;99.90
27667;DHT22;15074;50.940;5.282;2023-06-22T13:19:38;19.60;99.90
27667;DHT22;15074;50.940;5.282;2023-06-22T13:22:04;19.60;99.90
27667;DHT22;15074;50.940;5.282;2023-06-22T13:24:30;19.60;99.90
27667;DHT22;15074;50.940;5.282;2023-06-22T13:26:56;19.60;99.90
27667;DHT22;15074;50.940;5.282;2023-06-22T13:29:22;19.50;99.90
27667;DHT22;15074;50.940;5.282;2023-06-22T13:31:48;19.50;99.90
27667;DHT22;15074;50.940;5.282;2023-06-22T13:34:13;19.50;99.90
27667;DHT22;15074;50.940;5.282;2023-06-22T13:36:39;19.40;99.90
27667;DHT22;15074;50.940;5.282;2023-06-22T13:39:05;19.30;99.90
27667;DHT22;15074;50.940;5.282;2023-06-22T13:41:30;19.30;99.90
27667;DHT22;15074;50.940;5.282;2023-06-22T13:43:56;19.30;99.90
27667;DHT22;15074;50.940;5.282;2023-06-22T13:46:21;19.30;99.90
27667;DHT22;15074;50.940;5.282;2023-06-22T13:48:47;19.20;99.90
27667;DHT22;15074;50.940;5.282;2023-06-22T13:51:13;19.10;99.90
27667;DHT22;15074;50.940;5.282;2023-06-22T13:53:38;19.10;99.90
27667;DHT22;15074;50.940;5.282;2023-06-22T13:56:04;19.20;99.90
27667;DHT22;15074;50.940;5.282;2023-06-22T13:58:30;19.10;99.90
27667;DHT22;15074;50.940;5.282;2023-06-22T14:00:55;19.10;99.90
27667;DHT22;15074;50.940;5.282;2023-06-22T14:03:21;19.00;99.90
27667;DHT22;15074;50.940;5.282;2023-06-22T14:05:47;19.00;99.90
27667;DHT22;15074;50.940;5.282;2023-06-22T14:08:13;18.90;99.90
27667;DHT22;15074;50.940;5.282;2023-06-22T14:10:40;18.90;99.90
27667;DHT22;15074;50.940;5.282;2023-06-22T14:13:05;18.90;99.90
27667;DHT22;15074;50.940;5.282;2023-06-22T14:15:31;18.90;99.90
27667;DHT22;15074;50.940;5.282;2023-06-22T14:17:57;18.80;99.90
27667;DHT22;15074;50.940;5.282;2023-06-22T14:20:23;18.80;99.90
27667;DHT22;15074;50.940;5.282;2023-06-22T14:22:48;18.80;99.90
27667;DHT22;15074;50.940;5.282;2023-06-22T14:25:14;18.80;99.90
27667;DHT22;15074;50.940;5.282;2023-06-22T14:27:40;18.80;99.90
27667;DHT22;15074;50.940;5.282;2023-06-22T14:30:06;18.70;99.90
27667;DHT22;15074;50.940;5.282;2023-06-22T14:32:32;18.70;99.90
27667;DHT22;15074;50.940;5.282;2023-06-22T14:34:57;18.60;99.90
27667;DHT22;15074;50.940;5.282;2023-06-22T14:37:23;18.60;99.90
27667;DHT22;15074;50.940;5.282;2023-06-22T14:39:51;18.60;99.90
27667;DHT22;15074;50.940;5.282;2023-06-22T14:42:17;18.50;99.90
27667;DHT22;15074;50.940;5.282;2023-06-22T14:44:43;18.50;99.90
27667;DHT22;15074;50.940;5.282;2023-06-22T14:47:09;18.50;99.90
27667;DHT22;15074;50.940;5.282;2023-06-22T14:49:35;18.40;99.90
27667;DHT22;15074;50.940;5.282;2023-06-22T14:52:01;18.50;99.90
27667;DHT22;15074;50.940;5.282;2023-06-22T14:54:27;18.50;99.90
27667;DHT22;15074;50.940;5.282;2023-06-22T14:56:52;18.50;99.90
27667;DHT22;15074;50.940;5.282;2023-06-22T14:59:18;18.50;99.90
27667;DHT22;15074;50.940;5.282;2023-06-22T15:01:44;18.40;99.90
27667;DHT22;15074;50.940;5.282;2023-06-22T15:04:09;18.40;99.90
27667;DHT22;15074;50.940;5.282;2023-06-22T15:06:35;18.40;99.90
27667;DHT22;15074;50.940;5.282;2023-06-22T15:09:01;18.40;99.90
27667;DHT22;15074;50.940;5.282;2023-06-22T15:11:27;18.40;99.90
27667;DHT22;15074;50.940;5.282;2023-06-22T15:13:53;18.30;99.90
27667;DHT22;15074;50.940;5.282;2023-06-22T15:16:19;18.30;99.90
27667;DHT22;15074;50.940;5.282;2023-06-22T15:18:44;18.30;99.90
27667;DHT22;15074;50.940;5.282;2023-06-22T15:21:13;18.30;99.90
27667;DHT22;15074;50.940;5.282;2023-06-22T15:23:39;18.30;99.90
27667;DHT22;15074;50.940;5.282;2023-06-22T15:26:05;18.40;99.90
27667;DHT22;15074;50.940;5.282;2023-06-22T15:28:31;18.40;99.90
27667;DHT22;15074;50.940;5.282;2023-06-22T15:31:00;18.30;99.90